Big Bear Station Historical Data
Daily Summary for January 24, 2017 Units:  English    Metric   Both
« Previous Day
Next Day »
Daily Weekly Monthly Yearly Custom
  High: Low: Average:
Temperature: 27.3 °F 11.1 °F 19.3 °F
Dew Point: 23.7 °F 9.7 °F 17.4 °F
Humidity: 96 % 78 % 92 %
Wind Speed: 4.7 mph 0.0 mph 1 mph
Wind Gust: -999.0 mph - -
Wind:- - SW
Pressure: 30.05 in 23.16 in -
Precipitation: 0.00 in    
Historical Graphs
 
 
Tabular Data for January 24, 2017
Time Temperature Dew Point Pressure Wind Wind Speed Wind Gust Humidity Rainfall Rate (Hourly)
00:09 17.6 °F 16.7 °F 23.16 in ENE 2.2 mph -999.0 mph 96 % 0 in
00:25 17.8 °F 16.9 °F 23.17 in SE 1.7 mph -999.0 mph 96 % 0 in
00:40 18.0 °F 17.1 °F 23.17 in Calm   -999.0 mph 96 % 0 in
00:55 18.5 °F 17.6 °F 23.17 in SW 3.2 mph -999.0 mph 96 % 0 in
01:10 18.7 °F 17.7 °F 23.17 in NNW 2.7 mph -999.0 mph 96 % 0 in
01:25 18.9 °F 17.9 °F 23.17 in Calm   -999.0 mph 96 % 0 in
01:41 19.2 °F 18.2 °F 23.18 in Calm   -999.0 mph 96 % 0 in
01:56 19.6 °F 18.6 °F 23.18 in Calm   -999.0 mph 96 % 0 in
02:11 19.8 °F 18.8 °F 23.19 in Calm   -999.0 mph 96 % 0 in
02:26 19.8 °F 18.8 °F 23.19 in Calm   -999.0 mph 96 % 0 in
02:41 19.6 °F 18.6 °F 23.19 in Calm   -999.0 mph 96 % 0 in
02:57 19.6 °F 18.6 °F 23.20 in SSW 1.1 mph -999.0 mph 96 % 0 in
03:12 19.4 °F 18.4 °F 23.20 in NNW 2.7 mph -999.0 mph 96 % 0 in
03:27 19.2 °F 18.0 °F 23.20 in Calm   -999.0 mph 95 % 0 in
03:42 18.9 °F 17.7 °F 23.20 in South 2.2 mph -999.0 mph 95 % 0 in
03:58 18.5 °F 17.3 °F 23.20 in Calm   -999.0 mph 95 % 0 in
04:13 17.6 °F 16.4 °F 23.19 in ESE 1.1 mph -999.0 mph 95 % 0 in
04:28 17.1 °F 15.9 °F 23.20 in Calm   -999.0 mph 95 % 0 in
04:43 16.5 °F 15.3 °F 23.20 in North 2.7 mph -999.0 mph 95 % 0 in
04:58 16.2 °F 15.0 °F 23.20 in East 1.7 mph -999.0 mph 95 % 0 in
05:14 15.4 °F 14.2 °F 23.20 in Calm   -999.0 mph 95 % 0 in
05:29 14.9 °F 13.7 °F 23.20 in Calm   -999.0 mph 95 % 0 in
05:44 14.4 °F 13.2 °F 23.21 in Calm   -999.0 mph 95 % 0 in
05:59 13.8 °F 12.6 °F 23.21 in Calm   -999.0 mph 95 % 0 in
06:14 13.3 °F 12.1 °F 23.21 in Calm   -999.0 mph 95 % 0 in
06:30 12.9 °F 11.5 °F 23.22 in Calm   -999.0 mph 94 % 0 in
06:45 12.6 °F 11.2 °F 23.22 in Calm   -999.0 mph 94 % 0 in
07:00 12.2 °F 10.8 °F 23.22 in Calm   -999.0 mph 94 % 0 in
07:15 12.2 °F 10.8 °F 23.23 in Calm   -999.0 mph 94 % 0 in
07:30 12.6 °F 11.2 °F 23.23 in Calm   -999.0 mph 94 % 0 in
07:46 13.1 °F 11.7 °F 23.23 in Calm   -999.0 mph 94 % 0 in
08:01 13.6 °F 12.0 °F 23.23 in Calm   -999.0 mph 93 % 0 in
08:16 14.2 °F 12.8 °F 23.23 in Calm   -999.0 mph 94 % 0 in
08:31 16.5 °F 15.6 °F 23.24 in SSW 1.1 mph -999.0 mph 96 % 0 in
08:47 18.0 °F 16.6 °F 23.25 in NE 1.7 mph -999.0 mph 94 % 0 in
09:02 18.3 °F 16.9 °F 23.25 in Calm   -999.0 mph 94 % 0 in
09:17 19.9 °F 18.2 °F 23.25 in Calm   -999.0 mph 93 % 0 in
09:32 20.7 °F 18.2 °F 23.26 in SSE 2.2 mph -999.0 mph 90 % 0 in
09:47 21.7 °F 19.0 °F 23.26 in NW 2.2 mph -999.0 mph 89 % 0 in
10:03 22.1 °F 19.1 °F 23.26 in NNW 2.2 mph -999.0 mph 88 % 0 in
10:18 23.4 °F 20.1 °F 23.27 in WNW 1.7 mph -999.0 mph 87 % 0 in
10:33 23.9 °F 19.2 °F 23.28 in West 2.2 mph -999.0 mph 82 % 0 in
10:48 23.2 °F 18.8 °F 23.28 in SSE 2.2 mph -999.0 mph 83 % 0 in
11:03 24.8 °F 21.5 °F 23.28 in NE 1.1 mph -999.0 mph 87 % 0 in
11:19 25.5 °F 22.2 °F 23.28 in WNW 2.2 mph -999.0 mph 87 % 0 in
11:34 24.8 °F 21.2 °F 23.28 in NNW 2.2 mph -999.0 mph 86 % 0 in
11:50 24.8 °F 20.9 °F 23.28 in NW 4.7 mph -999.0 mph 85 % 0 in
12:05 26.6 °F 22.1 °F 23.27 in NW 3.2 mph -999.0 mph 83 % 0 in
12:20 27.1 °F 23.2 °F 23.26 in North 2.2 mph -999.0 mph 85 % 0 in
12:35 27.1 °F 23.5 °F 23.26 in WNW 2.7 mph -999.0 mph 86 % 0 in
12:51 27.3 °F 23.7 °F 23.26 in WNW 2.7 mph -999.0 mph 86 % 0 in
13:06 26.8 °F 23.2 °F 23.26 in NW 1.7 mph -999.0 mph 86 % 0 in
13:21 26.2 °F 21.5 °F 23.26 in NW 2.7 mph -999.0 mph 82 % 0 in
13:36 25.7 °F 22.1 °F 23.26 in NNW 2.7 mph -999.0 mph 86 % 0 in
13:51 26.1 °F 23.0 °F 23.26 in SW 1.7 mph -999.0 mph 88 % 0 in
14:07 26.6 °F 23.3 °F 23.27 in SE 1.1 mph -999.0 mph 87 % 0 in
14:22 26.4 °F 21.1 °F 23.27 in South 1.7 mph -999.0 mph 80 % 0 in
14:37 26.4 °F 21.9 °F 23.27 in WSW 1.1 mph -999.0 mph 83 % 0 in
14:52 26.2 °F 20.3 °F 23.28 in South 2.2 mph -999.0 mph 78 % 0 in
15:07 25.7 °F 21.5 °F 23.28 in Calm   -999.0 mph 84 % 0 in
15:23 25.2 °F 21.6 °F 29.93 in North 1.7 mph -999.0 mph 86 % 0 in
15:38 25.2 °F 20.8 °F 29.93 in Calm   -999.0 mph 83 % 0 in
15:53 24.4 °F 20.5 °F 29.94 in NNW 1.1 mph -999.0 mph 85 % 0 in
16:08 23.5 °F 21.0 °F 29.94 in Calm   -999.0 mph 90 % 0 in
16:23 23.0 °F 21.0 °F 29.95 in Calm   -999.0 mph 92 % 0 in
16:39 22.6 °F 20.9 °F 29.95 in Calm   -999.0 mph 93 % 0 in
16:54 22.1 °F 20.6 °F 29.96 in Calm   -999.0 mph 94 % 0 in
17:09 22.1 °F 20.9 °F 29.96 in Calm   -999.0 mph 95 % 0 in
17:24 22.1 °F 20.9 °F 29.96 in Calm   -999.0 mph 95 % 0 in
17:39 22.1 °F 20.6 °F 29.97 in Calm   -999.0 mph 94 % 0 in
17:55 22.1 °F 20.6 °F 29.97 in Calm   -999.0 mph 94 % 0 in
18:10 21.4 °F 20.2 °F 29.97 in Calm   -999.0 mph 95 % 0 in
18:25 20.3 °F 19.1 °F 29.97 in Calm   -999.0 mph 95 % 0 in
18:40 19.6 °F 18.4 °F 29.98 in Calm   -999.0 mph 95 % 0 in
18:55 18.9 °F 17.7 °F 29.99 in Calm   -999.0 mph 95 % 0 in
19:11 18.3 °F 17.1 °F 29.99 in Calm   -999.0 mph 95 % 0 in
19:26 18.0 °F 16.8 °F 29.99 in Calm   -999.0 mph 95 % 0 in
19:41 17.4 °F 16.2 °F 29.99 in NW 2.2 mph -999.0 mph 95 % 0 in
19:56 17.1 °F 15.9 °F 30.00 in SSE 2.2 mph -999.0 mph 95 % 0 in
20:12 16.7 °F 15.8 °F 30.00 in ESE 2.7 mph -999.0 mph 96 % 0 in
20:27 16.5 °F 15.6 °F 30.00 in South 2.2 mph -999.0 mph 96 % 0 in
20:42 16.0 °F 15.1 °F 30.01 in Calm   -999.0 mph 96 % 0 in
20:57 15.4 °F 14.2 °F 30.01 in SSE 2.2 mph -999.0 mph 95 % 0 in
21:12 15.1 °F 13.9 °F 30.02 in Calm   -999.0 mph 95 % 0 in
21:28 14.5 °F 13.3 °F 30.02 in Calm   -999.0 mph 95 % 0 in
21:43 14.2 °F 13.0 °F 30.03 in Calm   -999.0 mph 95 % 0 in
22:13 13.1 °F 11.9 °F 30.04 in SE 1.7 mph -999.0 mph 95 % 0 in
22:28 12.9 °F 11.7 °F 30.05 in Calm   -999.0 mph 95 % 0 in
22:44 12.6 °F 11.4 °F 30.05 in Calm   -999.0 mph 95 % 0 in
22:59 12.4 °F 11.2 °F 30.05 in Calm   -999.0 mph 95 % 0 in
23:14 12.4 °F 11.2 °F 30.05 in Calm   -999.0 mph 95 % 0 in
23:29 11.7 °F 10.3 °F 30.05 in Calm   -999.0 mph 94 % 0 in
23:44 11.1 °F 9.7 °F 30.05 in Calm   -999.0 mph 94 % 0 in
Big Bear CA Weather
Compliments of Weather Underground - 1.5 mb